sensor_id;sensor_type;location;lat;lon;timestamp;P1;durP1;ratioP1;P2;durP2;ratioP2
8102;SDS011;4094;49.948;11.574;2022-09-09T00:01:20;3.77;;;3.47;;
8102;SDS011;4094;49.948;11.574;2022-09-09T00:03:59;5.43;;;3.53;;
8102;SDS011;4094;49.948;11.574;2022-09-09T00:06:32;3.67;;;3.40;;
8102;SDS011;4094;49.948;11.574;2022-09-09T00:09:12;3.90;;;3.60;;
8102;SDS011;4094;49.948;11.574;2022-09-09T00:11:51;3.60;;;3.40;;
8102;SDS011;4094;49.948;11.574;2022-09-09T00:14:29;3.70;;;3.50;;
8102;SDS011;4094;49.948;11.574;2022-09-09T00:17:07;3.50;;;3.20;;
8102;SDS011;4094;49.948;11.574;2022-09-09T00:19:41;3.60;;;3.30;;
8102;SDS011;4094;49.948;11.574;2022-09-09T00:22:19;3.70;;;3.50;;
8102;SDS011;4094;49.948;11.574;2022-09-09T00:24:51;4.03;;;3.53;;
8102;SDS011;4094;49.948;11.574;2022-09-09T00:27:25;4.37;;;3.40;;
8102;SDS011;4094;49.948;11.574;2022-09-09T00:30:00;3.77;;;3.47;;
8102;SDS011;4094;49.948;11.574;2022-09-09T00:32:41;3.50;;;3.30;;
8102;SDS011;4094;49.948;11.574;2022-09-09T00:35:14;3.53;;;3.17;;
8102;SDS011;4094;49.948;11.574;2022-09-09T00:37:47;3.50;;;3.30;;
8102;SDS011;4094;49.948;11.574;2022-09-09T00:40:22;3.27;;;3.07;;
8102;SDS011;4094;49.948;11.574;2022-09-09T00:43:02;3.50;;;3.30;;
8102;SDS011;4094;49.948;11.574;2022-09-09T00:45:52;3.80;;;3.50;;
8102;SDS011;4094;49.948;11.574;2022-09-09T00:48:50;3.93;;;3.43;;
8102;SDS011;4094;49.948;11.574;2022-09-09T00:51:29;3.93;;;3.63;;
8102;SDS011;4094;49.948;11.574;2022-09-09T00:54:22;3.83;;;3.63;;
8102;SDS011;4094;49.948;11.574;2022-09-09T00:57:03;3.63;;;3.33;;
8102;SDS011;4094;49.948;11.574;2022-09-09T00:59:47;4.00;;;3.70;;
8102;SDS011;4094;49.948;11.574;2022-09-09T01:02:22;3.87;;;3.57;;
8102;SDS011;4094;49.948;11.574;2022-09-09T01:04:58;3.70;;;3.50;;
8102;SDS011;4094;49.948;11.574;2022-09-09T01:07:36;3.50;;;3.27;;
8102;SDS011;4094;49.948;11.574;2022-09-09T01:10:07;4.10;;;3.67;;
8102;SDS011;4094;49.948;11.574;2022-09-09T01:12:45;3.83;;;3.53;;
8102;SDS011;4094;49.948;11.574;2022-09-09T01:15:22;3.90;;;3.60;;
8102;SDS011;4094;49.948;11.574;2022-09-09T01:17:58;3.73;;;3.50;;
8102;SDS011;4094;49.948;11.574;2022-09-09T01:20:36;4.07;;;3.77;;
8102;SDS011;4094;49.948;11.574;2022-09-09T01:23:16;4.10;;;3.67;;
8102;SDS011;4094;49.948;11.574;2022-09-09T01:26:12;3.70;;;3.40;;
8102;SDS011;4094;49.948;11.574;2022-09-09T01:28:45;3.80;;;3.60;;
8102;SDS011;4094;49.948;11.574;2022-09-09T01:31:19;4.00;;;3.70;;
8102;SDS011;4094;49.948;11.574;2022-09-09T01:33:51;4.10;;;3.80;;
8102;SDS011;4094;49.948;11.574;2022-09-09T01:36:24;4.27;;;3.97;;
8102;SDS011;4094;49.948;11.574;2022-09-09T01:39:00;3.93;;;3.63;;
8102;SDS011;4094;49.948;11.574;2022-09-09T01:41:35;3.87;;;3.60;;
8102;SDS011;4094;49.948;11.574;2022-09-09T01:44:09;3.73;;;3.50;;
8102;SDS011;4094;49.948;11.574;2022-09-09T01:46:42;4.37;;;4.00;;
8102;SDS011;4094;49.948;11.574;2022-09-09T01:49:18;4.13;;;3.83;;
8102;SDS011;4094;49.948;11.574;2022-09-09T01:51:49;4.53;;;3.73;;
8102;SDS011;4094;49.948;11.574;2022-09-09T01:54:26;4.17;;;3.80;;
8102;SDS011;4094;49.948;11.574;2022-09-09T01:57:05;3.40;;;3.20;;
8102;SDS011;4094;49.948;11.574;2022-09-09T01:59:48;4.83;;;3.70;;
8102;SDS011;4094;49.948;11.574;2022-09-09T02:02:35;3.97;;;3.67;;
8102;SDS011;4094;49.948;11.574;2022-09-09T02:05:17;4.20;;;3.90;;
8102;SDS011;4094;49.948;11.574;2022-09-09T02:07:59;4.43;;;3.87;;
8102;SDS011;4094;49.948;11.574;2022-09-09T02:10:47;4.10;;;3.80;;
8102;SDS011;4094;49.948;11.574;2022-09-09T02:13:36;4.13;;;3.80;;
8102;SDS011;4094;49.948;11.574;2022-09-09T02:16:11;3.90;;;3.60;;
8102;SDS011;4094;49.948;11.574;2022-09-09T02:18:47;4.03;;;3.73;;
8102;SDS011;4094;49.948;11.574;2022-09-09T02:21:26;4.03;;;3.73;;
8102;SDS011;4094;49.948;11.574;2022-09-09T02:23:58;3.53;;;3.27;;
8102;SDS011;4094;49.948;11.574;2022-09-09T02:26:35;3.93;;;3.63;;
8102;SDS011;4094;49.948;11.574;2022-09-09T02:29:11;3.53;;;3.33;;
8102;SDS011;4094;49.948;11.574;2022-09-09T02:31:43;3.73;;;3.50;;
8102;SDS011;4094;49.948;11.574;2022-09-09T02:34:19;4.03;;;3.80;;
8102;SDS011;4094;49.948;11.574;2022-09-09T02:36:51;4.03;;;3.50;;
8102;SDS011;4094;49.948;11.574;2022-09-09T02:39:23;5.13;;;3.73;;
8102;SDS011;4094;49.948;11.574;2022-09-09T02:41:52;3.93;;;3.63;;
8102;SDS011;4094;49.948;11.574;2022-09-09T02:44:30;4.30;;;3.97;;
8102;SDS011;4094;49.948;11.574;2022-09-09T02:47:05;3.90;;;3.70;;
8102;SDS011;4094;49.948;11.574;2022-09-09T02:49:46;4.50;;;4.10;;
8102;SDS011;4094;49.948;11.574;2022-09-09T02:52:26;4.33;;;4.00;;
8102;SDS011;4094;49.948;11.574;2022-09-09T02:55:04;4.47;;;4.17;;
8102;SDS011;4094;49.948;11.574;2022-09-09T02:57:39;4.20;;;3.90;;
8102;SDS011;4094;49.948;11.574;2022-09-09T03:00:12;4.40;;;4.00;;
8102;SDS011;4094;49.948;11.574;2022-09-09T03:02:42;4.53;;;4.23;;
8102;SDS011;4094;49.948;11.574;2022-09-09T03:05:12;4.23;;;3.77;;
8102;SDS011;4094;49.948;11.574;2022-09-09T03:07:42;4.30;;;4.00;;
8102;SDS011;4094;49.948;11.574;2022-09-09T03:10:11;4.40;;;4.10;;
8102;SDS011;4094;49.948;11.574;2022-09-09T03:12:42;4.57;;;4.17;;
8102;SDS011;4094;49.948;11.574;2022-09-09T03:15:13;4.10;;;3.90;;
8102;SDS011;4094;49.948;11.574;2022-09-09T03:17:43;4.40;;;4.00;;
8102;SDS011;4094;49.948;11.574;2022-09-09T03:20:13;4.50;;;4.10;;
8102;SDS011;4094;49.948;11.574;2022-09-09T03:22:42;4.57;;;4.13;;
8102;SDS011;4094;49.948;11.574;2022-09-09T03:25:13;4.50;;;4.20;;
8102;SDS011;4094;49.948;11.574;2022-09-09T03:27:42;4.00;;;3.80;;
8102;SDS011;4094;49.948;11.574;2022-09-09T03:30:14;4.03;;;3.73;;
8102;SDS011;4094;49.948;11.574;2022-09-09T03:32:44;4.40;;;4.00;;
8102;SDS011;4094;49.948;11.574;2022-09-09T03:35:15;4.60;;;4.17;;
8102;SDS011;4094;49.948;11.574;2022-09-09T03:37:44;4.20;;;3.83;;
8102;SDS011;4094;49.948;11.574;2022-09-09T03:40:15;4.27;;;3.97;;
8102;SDS011;4094;49.948;11.574;2022-09-09T03:42:45;4.57;;;3.90;;
8102;SDS011;4094;49.948;11.574;2022-09-09T03:45:18;3.90;;;3.70;;
8102;SDS011;4094;49.948;11.574;2022-09-09T03:47:47;4.30;;;3.90;;
8102;SDS011;4094;49.948;11.574;2022-09-09T03:50:16;4.13;;;3.87;;
8102;SDS011;4094;49.948;11.574;2022-09-09T03:52:47;4.83;;;3.93;;
8102;SDS011;4094;49.948;11.574;2022-09-09T03:55:20;4.57;;;4.13;;
8102;SDS011;4094;49.948;11.574;2022-09-09T03:57:50;4.40;;;4.03;;
8102;SDS011;4094;49.948;11.574;2022-09-09T04:00:20;4.60;;;4.20;;
8102;SDS011;4094;49.948;11.574;2022-09-09T04:02:52;4.30;;;4.00;;
8102;SDS011;4094;49.948;11.574;2022-09-09T04:05:22;4.27;;;3.97;;
8102;SDS011;4094;49.948;11.574;2022-09-09T04:07:51;4.40;;;4.20;;
8102;SDS011;4094;49.948;11.574;2022-09-09T04:10:21;4.50;;;4.20;;
8102;SDS011;4094;49.948;11.574;2022-09-09T04:12:51;4.40;;;4.10;;
8102;SDS011;4094;49.948;11.574;2022-09-09T04:15:22;4.80;;;4.30;;
8102;SDS011;4094;49.948;11.574;2022-09-09T04:17:51;4.40;;;4.00;;
8102;SDS011;4094;49.948;11.574;2022-09-09T04:20:21;4.33;;;3.93;;
8102;SDS011;4094;49.948;11.574;2022-09-09T04:22:50;4.20;;;3.80;;
8102;SDS011;4094;49.948;11.574;2022-09-09T04:25:21;4.33;;;4.03;;
8102;SDS011;4094;49.948;11.574;2022-09-09T04:27:53;4.47;;;4.10;;
8102;SDS011;4094;49.948;11.574;2022-09-09T04:30:24;4.70;;;4.30;;
8102;SDS011;4094;49.948;11.574;2022-09-09T04:32:54;4.40;;;4.10;;
8102;SDS011;4094;49.948;11.574;2022-09-09T04:35:25;4.73;;;4.33;;
8102;SDS011;4094;49.948;11.574;2022-09-09T04:37:56;4.20;;;3.87;;
8102;SDS011;4094;49.948;11.574;2022-09-09T04:40:25;4.63;;;4.23;;
8102;SDS011;4094;49.948;11.574;2022-09-09T04:42:55;4.50;;;4.07;;
8102;SDS011;4094;49.948;11.574;2022-09-09T04:45:27;4.73;;;4.27;;
8102;SDS011;4094;49.948;11.574;2022-09-09T04:47:56;4.57;;;4.17;;
8102;SDS011;4094;49.948;11.574;2022-09-09T04:50:26;6.50;;;4.47;;
8102;SDS011;4094;49.948;11.574;2022-09-09T04:52:59;4.63;;;4.30;;
8102;SDS011;4094;49.948;11.574;2022-09-09T04:55:29;4.70;;;4.30;;
8102;SDS011;4094;49.948;11.574;2022-09-09T04:58:02;4.80;;;4.50;;
8102;SDS011;4094;49.948;11.574;2022-09-09T05:00:34;4.50;;;4.20;;
8102;SDS011;4094;49.948;11.574;2022-09-09T05:03:06;4.57;;;4.17;;
8102;SDS011;4094;49.948;11.574;2022-09-09T05:05:36;4.80;;;4.50;;
8102;SDS011;4094;49.948;11.574;2022-09-09T05:08:06;5.07;;;4.57;;
8102;SDS011;4094;49.948;11.574;2022-09-09T05:10:36;4.53;;;4.13;;
8102;SDS011;4094;49.948;11.574;2022-09-09T05:13:06;5.00;;;4.50;;
8102;SDS011;4094;49.948;11.574;2022-09-09T05:15:38;5.50;;;4.40;;
8102;SDS011;4094;49.948;11.574;2022-09-09T05:18:07;4.70;;;4.30;;
8102;SDS011;4094;49.948;11.574;2022-09-09T05:20:36;4.83;;;4.40;;
8102;SDS011;4094;49.948;11.574;2022-09-09T05:23:05;4.40;;;4.10;;
8102;SDS011;4094;49.948;11.574;2022-09-09T05:25:39;4.67;;;4.30;;
8102;SDS011;4094;49.948;11.574;2022-09-09T05:28:09;4.33;;;4.13;;
8102;SDS011;4094;49.948;11.574;2022-09-09T05:30:40;4.90;;;4.30;;
8102;SDS011;4094;49.948;11.574;2022-09-09T05:33:10;5.07;;;4.67;;
8102;SDS011;4094;49.948;11.574;2022-09-09T05:35:40;4.37;;;4.17;;
8102;SDS011;4094;49.948;11.574;2022-09-09T05:38:09;5.30;;;4.90;;
8102;SDS011;4094;49.948;11.574;2022-09-09T05:40:38;4.60;;;4.03;;
8102;SDS011;4094;49.948;11.574;2022-09-09T05:43:10;4.90;;;4.50;;
8102;SDS011;4094;49.948;11.574;2022-09-09T05:45:41;5.00;;;4.60;;
8102;SDS011;4094;49.948;11.574;2022-09-09T05:48:10;5.00;;;4.60;;
8102;SDS011;4094;49.948;11.574;2022-09-09T05:50:39;5.30;;;4.90;;
8102;SDS011;4094;49.948;11.574;2022-09-09T05:53:08;5.00;;;4.70;;
8102;SDS011;4094;49.948;11.574;2022-09-09T05:55:38;5.93;;;5.07;;
8102;SDS011;4094;49.948;11.574;2022-09-09T05:58:08;5.40;;;4.90;;
8102;SDS011;4094;49.948;11.574;2022-09-09T06:00:39;5.20;;;4.80;;
8102;SDS011;4094;49.948;11.574;2022-09-09T06:03:11;5.27;;;4.70;;
8102;SDS011;4094;49.948;11.574;2022-09-09T06:05:42;5.27;;;4.97;;
8102;SDS011;4094;49.948;11.574;2022-09-09T06:08:12;6.20;;;5.60;;
8102;SDS011;4094;49.948;11.574;2022-09-09T06:10:42;6.20;;;5.40;;
8102;SDS011;4094;49.948;11.574;2022-09-09T06:13:11;6.43;;;5.30;;
8102;SDS011;4094;49.948;11.574;2022-09-09T06:15:50;5.87;;;5.40;;
8102;SDS011;4094;49.948;11.574;2022-09-09T06:18:20;5.70;;;5.30;;
8102;SDS011;4094;49.948;11.574;2022-09-09T06:20:53;5.80;;;5.30;;
8102;SDS011;4094;49.948;11.574;2022-09-09T06:23:26;5.53;;;5.13;;
8102;SDS011;4094;49.948;11.574;2022-09-09T06:26:02;5.50;;;5.10;;
8102;SDS011;4094;49.948;11.574;2022-09-09T06:28:34;5.83;;;5.33;;
8102;SDS011;4094;49.948;11.574;2022-09-09T06:31:07;5.73;;;5.23;;
8102;SDS011;4094;49.948;11.574;2022-09-09T06:33:39;5.10;;;4.70;;
8102;SDS011;4094;49.948;11.574;2022-09-09T06:36:12;5.33;;;4.90;;
8102;SDS011;4094;49.948;11.574;2022-09-09T06:38:42;5.50;;;5.00;;
8102;SDS011;4094;49.948;11.574;2022-09-09T06:41:13;6.10;;;5.60;;
8102;SDS011;4094;49.948;11.574;2022-09-09T06:43:45;5.27;;;4.87;;
8102;SDS011;4094;49.948;11.574;2022-09-09T06:46:18;5.00;;;4.60;;
8102;SDS011;4094;49.948;11.574;2022-09-09T06:48:50;5.27;;;4.87;;
8102;SDS011;4094;49.948;11.574;2022-09-09T06:51:23;5.00;;;4.70;;
8102;SDS011;4094;49.948;11.574;2022-09-09T06:53:55;5.17;;;4.87;;
8102;SDS011;4094;49.948;11.574;2022-09-09T06:56:28;4.70;;;4.40;;
8102;SDS011;4094;49.948;11.574;2022-09-09T06:59:01;4.70;;;4.40;;
8102;SDS011;4094;49.948;11.574;2022-09-09T07:01:35;4.60;;;4.30;;
8102;SDS011;4094;49.948;11.574;2022-09-09T07:04:19;5.37;;;4.90;;
8102;SDS011;4094;49.948;11.574;2022-09-09T07:06:49;5.20;;;4.80;;
8102;SDS011;4094;49.948;11.574;2022-09-09T07:09:23;5.00;;;4.50;;
8102;SDS011;4094;49.948;11.574;2022-09-09T07:11:53;5.40;;;4.53;;
8102;SDS011;4094;49.948;11.574;2022-09-09T07:14:28;4.90;;;4.50;;
8102;SDS011;4094;49.948;11.574;2022-09-09T07:17:02;4.93;;;4.50;;
8102;SDS011;4094;49.948;11.574;2022-09-09T07:19:36;4.60;;;4.30;;
8102;SDS011;4094;49.948;11.574;2022-09-09T07:22:06;5.07;;;4.60;;
8102;SDS011;4094;49.948;11.574;2022-09-09T07:24:36;4.83;;;4.53;;
8102;SDS011;4094;49.948;11.574;2022-09-09T07:27:06;5.10;;;4.70;;
8102;SDS011;4094;49.948;11.574;2022-09-09T07:29:36;5.07;;;4.70;;
8102;SDS011;4094;49.948;11.574;2022-09-09T07:32:08;4.67;;;4.33;;
8102;SDS011;4094;49.948;11.574;2022-09-09T07:34:38;5.20;;;4.70;;
8102;SDS011;4094;49.948;11.574;2022-09-09T07:37:07;5.77;;;4.60;;
8102;SDS011;4094;49.948;11.574;2022-09-09T07:39:42;4.40;;;4.10;;
8102;SDS011;4094;49.948;11.574;2022-09-09T07:42:12;6.20;;;4.93;;
8102;SDS011;4094;49.948;11.574;2022-09-09T07:44:42;4.27;;;4.00;;
8102;SDS011;4094;49.948;11.574;2022-09-09T07:47:16;6.00;;;4.60;;
8102;SDS011;4094;49.948;11.574;2022-09-09T07:49:47;4.33;;;4.03;;
8102;SDS011;4094;49.948;11.574;2022-09-09T07:52:21;4.57;;;3.93;;
8102;SDS011;4094;49.948;11.574;2022-09-09T07:54:57;5.07;;;4.27;;
8102;SDS011;4094;49.948;11.574;2022-09-09T07:57:28;5.20;;;4.70;;
8102;SDS011;4094;49.948;11.574;2022-09-09T07:59:57;5.10;;;4.70;;
8102;SDS011;4094;49.948;11.574;2022-09-09T08:02:29;5.40;;;5.00;;
8102;SDS011;4094;49.948;11.574;2022-09-09T08:04:58;5.17;;;4.77;;
8102;SDS011;4094;49.948;11.574;2022-09-09T08:07:27;5.10;;;4.70;;
8102;SDS011;4094;49.948;11.574;2022-09-09T08:09:56;4.77;;;4.43;;
8102;SDS011;4094;49.948;11.574;2022-09-09T08:12:29;4.90;;;4.50;;
8102;SDS011;4094;49.948;11.574;2022-09-09T08:15:03;4.20;;;3.90;;
8102;SDS011;4094;49.948;11.574;2022-09-09T08:17:35;4.93;;;4.43;;
8102;SDS011;4094;49.948;11.574;2022-09-09T08:20:07;4.40;;;4.10;;
8102;SDS011;4094;49.948;11.574;2022-09-09T08:22:36;4.60;;;4.20;;
8102;SDS011;4094;49.948;11.574;2022-09-09T08:25:05;4.10;;;3.80;;
8102;SDS011;4094;49.948;11.574;2022-09-09T08:27:37;5.20;;;4.80;;
8102;SDS011;4094;49.948;11.574;2022-09-09T08:30:07;5.13;;;4.70;;
8102;SDS011;4094;49.948;11.574;2022-09-09T08:32:42;5.10;;;4.57;;
8102;SDS011;4094;49.948;11.574;2022-09-09T08:35:13;4.67;;;4.27;;
8102;SDS011;4094;49.948;11.574;2022-09-09T08:37:45;4.60;;;4.20;;
8102;SDS011;4094;49.948;11.574;2022-09-09T08:40:20;4.87;;;4.43;;
8102;SDS011;4094;49.948;11.574;2022-09-09T08:42:55;4.47;;;4.07;;
8102;SDS011;4094;49.948;11.574;2022-09-09T08:45:29;3.93;;;3.63;;
8102;SDS011;4094;49.948;11.574;2022-09-09T08:48:19;4.13;;;3.70;;
8102;SDS011;4094;49.948;11.574;2022-09-09T08:50:57;3.90;;;3.57;;
8102;SDS011;4094;49.948;11.574;2022-09-09T08:53:34;3.90;;;3.40;;
8102;SDS011;4094;49.948;11.574;2022-09-09T08:56:11;3.10;;;2.80;;
8102;SDS011;4094;49.948;11.574;2022-09-09T08:58:48;2.60;;;2.40;;
8102;SDS011;4094;49.948;11.574;2022-09-09T09:01:27;2.30;;;2.00;;
8102;SDS011;4094;49.948;11.574;2022-09-09T09:04:14;2.27;;;2.07;;
8102;SDS011;4094;49.948;11.574;2022-09-09T09:07:04;2.43;;;2.00;;
8102;SDS011;4094;49.948;11.574;2022-09-09T09:09:43;2.30;;;2.03;;
8102;SDS011;4094;49.948;11.574;2022-09-09T09:12:35;3.43;;;2.30;;
8102;SDS011;4094;49.948;11.574;2022-09-09T09:15:14;2.53;;;2.10;;
8102;SDS011;4094;49.948;11.574;2022-09-09T09:17:49;2.57;;;2.00;;
8102;SDS011;4094;49.948;11.574;2022-09-09T09:20:23;2.43;;;2.23;;
8102;SDS011;4094;49.948;11.574;2022-09-09T09:22:59;2.73;;;2.30;;
8102;SDS011;4094;49.948;11.574;2022-09-09T09:25:34;3.23;;;1.90;;
8102;SDS011;4094;49.948;11.574;2022-09-09T09:28:10;2.30;;;1.90;;
8102;SDS011;4094;49.948;11.574;2022-09-09T09:30:48;2.30;;;2.10;;
8102;SDS011;4094;49.948;11.574;2022-09-09T09:33:23;2.80;;;1.97;;
8102;SDS011;4094;49.948;11.574;2022-09-09T09:35:58;2.27;;;1.77;;
8102;SDS011;4094;49.948;11.574;2022-09-09T09:38:29;2.57;;;1.90;;
8102;SDS011;4094;49.948;11.574;2022-09-09T09:41:28;2.40;;;1.90;;
8102;SDS011;4094;49.948;11.574;2022-09-09T09:43:58;1.90;;;1.80;;
8102;SDS011;4094;49.948;11.574;2022-09-09T09:46:29;3.80;;;2.13;;
8102;SDS011;4094;49.948;11.574;2022-09-09T09:49:09;4.07;;;2.10;;
8102;SDS011;4094;49.948;11.574;2022-09-09T09:51:44;2.80;;;2.00;;
8102;SDS011;4094;49.948;11.574;2022-09-09T09:54:17;3.23;;;2.00;;
8102;SDS011;4094;49.948;11.574;2022-09-09T09:56:55;3.43;;;1.97;;
8102;SDS011;4094;49.948;11.574;2022-09-09T09:59:32;3.40;;;2.13;;
8102;SDS011;4094;49.948;11.574;2022-09-09T10:02:13;2.70;;;2.00;;
8102;SDS011;4094;49.948;11.574;2022-09-09T10:04:48;2.53;;;1.80;;
8102;SDS011;4094;49.948;11.574;2022-09-09T10:07:19;2.63;;;1.80;;
8102;SDS011;4094;49.948;11.574;2022-09-09T10:09:52;2.83;;;1.80;;
8102;SDS011;4094;49.948;11.574;2022-09-09T10:12:26;2.30;;;1.73;;
8102;SDS011;4094;49.948;11.574;2022-09-09T10:15:14;3.83;;;1.70;;
8102;SDS011;4094;49.948;11.574;2022-09-09T10:17:54;1.70;;;1.60;;
8102;SDS011;4094;49.948;11.574;2022-09-09T10:20:35;1.87;;;1.70;;
8102;SDS011;4094;49.948;11.574;2022-09-09T10:23:16;4.17;;;1.93;;
8102;SDS011;4094;49.948;11.574;2022-09-09T10:26:00;2.27;;;1.93;;
8102;SDS011;4094;49.948;11.574;2022-09-09T10:28:49;3.83;;;2.07;;
8102;SDS011;4094;49.948;11.574;2022-09-09T10:31:34;2.07;;;1.73;;
8102;SDS011;4094;49.948;11.574;2022-09-09T10:34:14;1.60;;;1.50;;
8102;SDS011;4094;49.948;11.574;2022-09-09T10:36:58;1.80;;;1.70;;
8102;SDS011;4094;49.948;11.574;2022-09-09T10:39:33;1.90;;;1.60;;
8102;SDS011;4094;49.948;11.574;2022-09-09T10:42:09;2.20;;;1.60;;
8102;SDS011;4094;49.948;11.574;2022-09-09T10:44:46;4.83;;;1.77;;
8102;SDS011;4094;49.948;11.574;2022-09-09T10:47:35;1.97;;;1.50;;
8102;SDS011;4094;49.948;11.574;2022-09-09T10:50:25;3.10;;;1.80;;
8102;SDS011;4094;49.948;11.574;2022-09-09T10:53:37;1.83;;;1.57;;
8102;SDS011;4094;49.948;11.574;2022-09-09T10:56:16;2.17;;;1.70;;
8102;SDS011;4094;49.948;11.574;2022-09-09T10:58:49;2.07;;;1.77;;
8102;SDS011;4094;49.948;11.574;2022-09-09T11:01:22;2.83;;;1.90;;
8102;SDS011;4094;49.948;11.574;2022-09-09T11:03:59;1.87;;;1.60;;
8102;SDS011;4094;49.948;11.574;2022-09-09T11:06:34;1.67;;;1.57;;
8102;SDS011;4094;49.948;11.574;2022-09-09T11:09:08;2.53;;;2.00;;
8102;SDS011;4094;49.948;11.574;2022-09-09T11:11:46;4.03;;;1.77;;
8102;SDS011;4094;49.948;11.574;2022-09-09T11:14:21;1.60;;;1.50;;
8102;SDS011;4094;49.948;11.574;2022-09-09T11:17:04;3.03;;;1.83;;
8102;SDS011;4094;49.948;11.574;2022-09-09T11:19:39;2.03;;;1.83;;
8102;SDS011;4094;49.948;11.574;2022-09-09T11:22:15;2.03;;;1.80;;
8102;SDS011;4094;49.948;11.574;2022-09-09T11:24:52;2.80;;;1.90;;
8102;SDS011;4094;49.948;11.574;2022-09-09T11:27:27;3.13;;;1.90;;
8102;SDS011;4094;49.948;11.574;2022-09-09T11:30:10;2.33;;;2.07;;
8102;SDS011;4094;49.948;11.574;2022-09-09T11:33:12;2.40;;;2.00;;
8102;SDS011;4094;49.948;11.574;2022-09-09T11:36:11;3.57;;;2.60;;
8102;SDS011;4094;49.948;11.574;2022-09-09T11:39:00;2.73;;;2.00;;
8102;SDS011;4094;49.948;11.574;2022-09-09T11:41:42;3.87;;;2.10;;
8102;SDS011;4094;49.948;11.574;2022-09-09T11:44:16;2.40;;;2.00;;
8102;SDS011;4094;49.948;11.574;2022-09-09T11:46:49;2.57;;;1.83;;
8102;SDS011;4094;49.948;11.574;2022-09-09T11:49:26;3.00;;;1.90;;
8102;SDS011;4094;49.948;11.574;2022-09-09T11:51:58;3.07;;;2.00;;
8102;SDS011;4094;49.948;11.574;2022-09-09T11:54:28;2.70;;;1.83;;
8102;SDS011;4094;49.948;11.574;2022-09-09T11:56:59;2.73;;;1.77;;
8102;SDS011;4094;49.948;11.574;2022-09-09T11:59:33;3.10;;;1.87;;
8102;SDS011;4094;49.948;11.574;2022-09-09T12:02:08;2.37;;;1.70;;
8102;SDS011;4094;49.948;11.574;2022-09-09T12:04:46;3.10;;;1.83;;
8102;SDS011;4094;49.948;11.574;2022-09-09T12:07:29;3.43;;;1.90;;
8102;SDS011;4094;49.948;11.574;2022-09-09T12:10:05;3.67;;;1.80;;
8102;SDS011;4094;49.948;11.574;2022-09-09T12:12:50;2.97;;;2.13;;
8102;SDS011;4094;49.948;11.574;2022-09-09T12:15:25;3.27;;;2.00;;
8102;SDS011;4094;49.948;11.574;2022-09-09T12:17:57;4.07;;;2.30;;
8102;SDS011;4094;49.948;11.574;2022-09-09T12:20:33;6.23;;;2.23;;
8102;SDS011;4094;49.948;11.574;2022-09-09T12:23:13;3.50;;;2.40;;
8102;SDS011;4094;49.948;11.574;2022-09-09T12:29:01;3.70;;;2.30;;
8102;SDS011;4094;49.948;11.574;2022-09-09T12:31:44;3.77;;;2.07;;
8102;SDS011;4094;49.948;11.574;2022-09-09T12:34:21;2.20;;;1.90;;
8102;SDS011;4094;49.948;11.574;2022-09-09T12:37:04;2.57;;;2.00;;
8102;SDS011;4094;49.948;11.574;2022-09-09T12:39:43;1.80;;;1.50;;
8102;SDS011;4094;49.948;11.574;2022-09-09T12:42:16;2.77;;;1.20;;
8102;SDS011;4094;49.948;11.574;2022-09-09T12:44:50;3.33;;;1.27;;
8102;SDS011;4094;49.948;11.574;2022-09-09T12:47:27;2.70;;;1.30;;
8102;SDS011;4094;49.948;11.574;2022-09-09T12:50:14;1.60;;;1.03;;
8102;SDS011;4094;49.948;11.574;2022-09-09T12:52:45;2.70;;;1.50;;
8102;SDS011;4094;49.948;11.574;2022-09-09T12:55:19;3.17;;;1.30;;
8102;SDS011;4094;49.948;11.574;2022-09-09T12:57:52;2.17;;;1.00;;
8102;SDS011;4094;49.948;11.574;2022-09-09T13:00:22;2.50;;;1.30;;
8102;SDS011;4094;49.948;11.574;2022-09-09T13:02:54;3.80;;;1.57;;
8102;SDS011;4094;49.948;11.574;2022-09-09T13:05:25;3.00;;;1.33;;
8102;SDS011;4094;49.948;11.574;2022-09-09T13:08:00;3.00;;;1.40;;
8102;SDS011;4094;49.948;11.574;2022-09-09T13:10:31;3.57;;;1.60;;
8102;SDS011;4094;49.948;11.574;2022-09-09T13:13:22;2.60;;;1.60;;
8102;SDS011;4094;49.948;11.574;2022-09-09T13:15:55;5.10;;;1.63;;
8102;SDS011;4094;49.948;11.574;2022-09-09T13:18:28;2.60;;;1.70;;
8102;SDS011;4094;49.948;11.574;2022-09-09T13:20:58;4.37;;;2.00;;
8102;SDS011;4094;49.948;11.574;2022-09-09T13:23:29;3.73;;;1.80;;
8102;SDS011;4094;49.948;11.574;2022-09-09T13:26:00;4.30;;;1.80;;
8102;SDS011;4094;49.948;11.574;2022-09-09T13:28:31;3.80;;;1.80;;
8102;SDS011;4094;49.948;11.574;2022-09-09T13:31:03;2.37;;;1.60;;
8102;SDS011;4094;49.948;11.574;2022-09-09T13:33:36;2.93;;;1.70;;
8102;SDS011;4094;49.948;11.574;2022-09-09T13:36:06;6.13;;;1.87;;
8102;SDS011;4094;49.948;11.574;2022-09-09T13:38:38;4.60;;;2.30;;
8102;SDS011;4094;49.948;11.574;2022-09-09T13:41:09;2.90;;;1.60;;
8102;SDS011;4094;49.948;11.574;2022-09-09T13:43:42;2.80;;;1.77;;
8102;SDS011;4094;49.948;11.574;2022-09-09T13:46:27;2.80;;;1.80;;
8102;SDS011;4094;49.948;11.574;2022-09-09T13:49:02;2.30;;;1.70;;
8102;SDS011;4094;49.948;11.574;2022-09-09T13:51:48;2.47;;;1.80;;
8102;SDS011;4094;49.948;11.574;2022-09-09T13:54:20;2.13;;;1.70;;
8102;SDS011;4094;49.948;11.574;2022-09-09T13:56:50;2.13;;;1.60;;
8102;SDS011;4094;49.948;11.574;2022-09-09T13:59:19;1.70;;;1.50;;
8102;SDS011;4094;49.948;11.574;2022-09-09T14:02:13;3.53;;;2.07;;
8102;SDS011;4094;49.948;11.574;2022-09-09T14:04:43;5.13;;;2.47;;
8102;SDS011;4094;49.948;11.574;2022-09-09T14:07:12;3.20;;;1.70;;
8102;SDS011;4094;49.948;11.574;2022-09-09T14:09:44;4.33;;;1.90;;
8102;SDS011;4094;49.948;11.574;2022-09-09T14:12:17;2.50;;;1.97;;
8102;SDS011;4094;49.948;11.574;2022-09-09T14:14:47;4.03;;;1.60;;
8102;SDS011;4094;49.948;11.574;2022-09-09T14:17:17;2.63;;;1.70;;
8102;SDS011;4094;49.948;11.574;2022-09-09T14:19:47;3.43;;;1.53;;
8102;SDS011;4094;49.948;11.574;2022-09-09T14:22:16;25.90;;;4.40;;
8102;SDS011;4094;49.948;11.574;2022-09-09T14:24:45;14.10;;;3.73;;
8102;SDS011;4094;49.948;11.574;2022-09-09T14:27:15;3.23;;;1.93;;
8102;SDS011;4094;49.948;11.574;2022-09-09T14:29:46;3.03;;;1.67;;
8102;SDS011;4094;49.948;11.574;2022-09-09T14:32:15;1.90;;;1.37;;
8102;SDS011;4094;49.948;11.574;2022-09-09T14:34:44;2.50;;;1.50;;
8102;SDS011;4094;49.948;11.574;2022-09-09T14:37:18;2.83;;;1.67;;
8102;SDS011;4094;49.948;11.574;2022-09-09T14:39:48;2.63;;;2.10;;
8102;SDS011;4094;49.948;11.574;2022-09-09T14:42:17;2.23;;;1.70;;
8102;SDS011;4094;49.948;11.574;2022-09-09T14:44:47;1.97;;;1.60;;
8102;SDS011;4094;49.948;11.574;2022-09-09T14:47:16;2.37;;;1.80;;
8102;SDS011;4094;49.948;11.574;2022-09-09T14:49:45;5.57;;;2.13;;
8102;SDS011;4094;49.948;11.574;2022-09-09T14:52:18;2.57;;;1.80;;
8102;SDS011;4094;49.948;11.574;2022-09-09T14:54:48;1.93;;;1.70;;
8102;SDS011;4094;49.948;11.574;2022-09-09T14:57:17;1.70;;;1.60;;
8102;SDS011;4094;49.948;11.574;2022-09-09T14:59:46;14.20;;;2.87;;
8102;SDS011;4094;49.948;11.574;2022-09-09T15:02:17;6.10;;;2.20;;
8102;SDS011;4094;49.948;11.574;2022-09-09T15:04:46;1.73;;;1.50;;
8102;SDS011;4094;49.948;11.574;2022-09-09T15:07:18;2.07;;;1.77;;
8102;SDS011;4094;49.948;11.574;2022-09-09T15:09:47;2.17;;;1.80;;
8102;SDS011;4094;49.948;11.574;2022-09-09T15:12:16;2.30;;;1.90;;
8102;SDS011;4094;49.948;11.574;2022-09-09T15:14:46;2.17;;;1.83;;
8102;SDS011;4094;49.948;11.574;2022-09-09T15:17:15;3.13;;;1.80;;
8102;SDS011;4094;49.948;11.574;2022-09-09T15:19:44;2.77;;;1.80;;
8102;SDS011;4094;49.948;11.574;2022-09-09T15:22:13;1.97;;;1.77;;
8102;SDS011;4094;49.948;11.574;2022-09-09T15:24:44;2.30;;;1.80;;
8102;SDS011;4094;49.948;11.574;2022-09-09T15:27:15;2.20;;;2.00;;
8102;SDS011;4094;49.948;11.574;2022-09-09T15:29:45;2.57;;;2.20;;
8102;SDS011;4094;49.948;11.574;2022-09-09T15:32:16;2.00;;;1.90;;
8102;SDS011;4094;49.948;11.574;2022-09-09T15:34:45;2.43;;;1.90;;
8102;SDS011;4094;49.948;11.574;2022-09-09T15:37:14;2.10;;;1.90;;
8102;SDS011;4094;49.948;11.574;2022-09-09T15:39:46;2.33;;;2.00;;
8102;SDS011;4094;49.948;11.574;2022-09-09T15:42:15;2.73;;;2.00;;
8102;SDS011;4094;49.948;11.574;2022-09-09T15:44:44;2.83;;;2.13;;
8102;SDS011;4094;49.948;11.574;2022-09-09T15:47:13;2.73;;;2.10;;